createdAt,value
2022-10-29T00:00:52.300Z,95.58
2022-10-29T00:01:52.383Z,95.48
2022-10-29T00:02:52.311Z,95.89
2022-10-29T00:03:52.257Z,95.78
2022-10-29T00:04:53.470Z,95.68
2022-10-29T00:05:52.274Z,95.02
2022-10-29T00:06:52.190Z,94.15
2022-10-29T00:07:52.376Z,94.05
2022-10-29T00:08:52.164Z,93.74
2022-10-29T00:09:52.424Z,93.64
2022-10-29T00:10:52.162Z,93.43
2022-10-29T00:11:52.126Z,93.54
2022-10-29T00:12:52.106Z,93.64
2022-10-29T00:13:52.115Z,93.74
2022-10-29T00:14:52.092Z,93.84
2022-10-29T00:15:52.130Z,93.95
2022-10-29T00:16:52.079Z,94.40
2022-10-29T00:17:52.148Z,94.60
2022-10-29T00:18:52.053Z,94.92
2022-10-29T00:19:52.075Z,94.81
2022-10-29T00:20:52.040Z,95.02
2022-10-29T00:21:52.061Z,95.33
2022-10-29T00:22:52.237Z,95.53
2022-10-29T00:23:51.996Z,95.33
2022-10-29T00:24:51.988Z,95.53
2022-10-29T00:25:51.984Z,95.53
2022-10-29T00:26:51.977Z,95.43
2022-10-29T00:27:51.964Z,95.58
2022-10-29T00:28:51.956Z,95.74
2022-10-29T00:29:51.941Z,95.74
2022-10-29T00:30:51.972Z,95.99
2022-10-29T00:31:51.996Z,96.09
2022-10-29T00:32:52.000Z,96.05
2022-10-29T00:33:51.880Z,95.53
2022-10-29T00:34:51.892Z,95.74
2022-10-29T00:35:51.859Z,95.64
2022-10-29T00:36:51.854Z,95.64
2022-10-29T00:37:51.938Z,95.53
2022-10-29T00:38:51.834Z,95.43
2022-10-29T00:39:51.859Z,95.53
2022-10-29T00:40:51.807Z,95.53
2022-10-29T00:41:51.807Z,95.53
2022-10-29T00:42:51.827Z,95.84
2022-10-29T00:43:51.859Z,95.84
2022-10-29T00:44:51.778Z,95.95
2022-10-29T00:45:51.777Z,95.95
2022-10-29T00:46:51.756Z,95.84
2022-10-29T00:47:51.722Z,95.84
2022-10-29T00:48:51.736Z,95.84
2022-10-29T00:49:51.731Z,95.84
2022-10-29T00:50:51.693Z,95.95
2022-10-29T00:51:51.698Z,96.25
2022-10-29T00:52:51.672Z,97.18
2022-10-29T00:53:51.712Z,97.49
2022-10-29T00:54:51.655Z,97.60
2022-10-29T00:55:51.657Z,97.28
2022-10-29T00:56:51.656Z,97.28
2022-10-29T00:57:51.646Z,97.39
2022-10-29T00:58:51.616Z,97.80
2022-10-29T00:59:51.601Z,98.21
2022-10-29T01:00:51.600Z,98.15
2022-10-29T01:01:51.712Z,98.15
2022-10-29T01:02:51.680Z,98.15
2022-10-29T01:03:51.577Z,98.25
2022-10-29T01:04:51.688Z,98.25
2022-10-29T01:05:51.571Z,98.36
2022-10-29T01:06:51.533Z,98.77
2022-10-29T01:07:51.543Z,98.88
2022-10-29T01:08:51.493Z,99.08
2022-10-29T01:09:51.619Z,99.29
2022-10-29T01:10:51.524Z,99.29
2022-10-29T01:11:51.498Z,99.29
2022-10-29T01:12:51.455Z,99.39
2022-10-29T01:13:51.439Z,99.49
2022-10-29T01:14:51.428Z,99.99
2022-10-29T01:15:51.408Z,99.99
2022-10-29T01:16:51.462Z,99.99
2022-10-29T01:17:51.420Z,99.99
2022-10-29T01:18:51.453Z,99.99
2022-10-29T01:19:51.381Z,99.99
2022-10-29T01:20:51.399Z,99.99
2022-10-29T01:21:51.441Z,99.99
2022-10-29T01:22:51.343Z,99.99
2022-10-29T01:23:51.344Z,99.99
2022-10-29T01:24:51.349Z,99.99
2022-10-29T01:25:51.339Z,99.99
2022-10-29T01:26:51.398Z,99.99
2022-10-29T01:27:51.371Z,99.99
2022-10-29T01:28:51.304Z,99.99
2022-10-29T01:29:51.262Z,99.99
2022-10-29T01:30:51.302Z,99.99
2022-10-29T01:31:51.251Z,99.99
2022-10-29T01:32:51.319Z,99.99
2022-10-29T01:33:51.260Z,99.99
2022-10-29T01:34:51.208Z,99.99
2022-10-29T01:35:51.199Z,99.99
2022-10-29T01:36:51.199Z,99.99
2022-10-29T01:37:51.193Z,99.99
2022-10-29T01:38:51.191Z,99.99
2022-10-29T01:39:51.169Z,99.99
2022-10-29T01:40:51.150Z,99.99
2022-10-29T01:41:51.128Z,99.99
2022-10-29T01:42:51.128Z,99.99
2022-10-29T01:43:51.158Z,99.99
2022-10-29T01:44:51.126Z,99.99
2022-10-29T01:45:51.098Z,99.99
2022-10-29T01:46:51.099Z,99.99
2022-10-29T01:47:51.078Z,99.99
2022-10-29T01:48:51.048Z,99.99
2022-10-29T01:49:51.102Z,99.99
2022-10-29T01:50:51.065Z,99.99
2022-10-29T01:51:51.053Z,99.99
2022-10-29T01:52:51.092Z,99.99
2022-10-29T01:53:51.001Z,99.99
2022-10-29T01:54:50.988Z,99.99
2022-10-29T01:55:50.982Z,99.99
2022-10-29T01:56:50.968Z,99.99
2022-10-29T01:57:50.973Z,99.99
2022-10-29T01:58:50.975Z,99.99
2022-10-29T01:59:56.024Z,99.99
2022-10-29T02:00:50.966Z,99.99
2022-10-29T02:01:50.979Z,99.99
2022-10-29T02:02:50.925Z,99.99
2022-10-29T02:03:50.885Z,99.99
2022-10-29T02:04:50.884Z,99.99
2022-10-29T02:05:50.864Z,99.99
2022-10-29T02:06:50.858Z,99.99
2022-10-29T02:07:50.998Z,99.99
2022-10-29T02:08:50.852Z,99.99
2022-10-29T02:09:51.588Z,99.99
2022-10-29T02:10:50.835Z,99.99
2022-10-29T02:11:50.809Z,99.99
2022-10-29T02:12:50.810Z,99.99
2022-10-29T02:13:50.800Z,99.99
2022-10-29T02:14:50.768Z,99.99
2022-10-29T02:15:50.772Z,99.99
2022-10-29T02:16:50.810Z,99.99
2022-10-29T02:17:50.749Z,99.99
2022-10-29T02:18:50.757Z,99.99
2022-10-29T02:19:50.735Z,99.99
2022-10-29T02:20:50.731Z,99.99
2022-10-29T02:21:50.694Z,99.99
2022-10-29T02:22:50.691Z,99.99
2022-10-29T02:23:50.685Z,99.99
2022-10-29T02:24:50.689Z,99.99
2022-10-29T02:25:50.770Z,99.99
2022-10-29T02:26:50.704Z,99.99
2022-10-29T02:27:50.672Z,99.99
2022-10-29T02:28:50.613Z,99.99
2022-10-29T02:29:50.615Z,99.99
2022-10-29T02:30:50.646Z,99.99
2022-10-29T02:31:50.587Z,99.99
2022-10-29T02:32:50.571Z,99.99
2022-10-29T02:33:50.558Z,99.99
2022-10-29T02:34:50.544Z,99.99
2022-10-29T02:35:50.559Z,99.99
2022-10-29T02:36:50.583Z,99.99
2022-10-29T02:37:50.520Z,99.99
2022-10-29T02:38:50.526Z,99.99
2022-10-29T02:39:50.511Z,99.99
2022-10-29T02:40:50.473Z,99.99
2022-10-29T02:41:50.474Z,99.99
2022-10-29T02:42:50.475Z,99.99
2022-10-29T02:43:50.442Z,99.99
2022-10-29T02:44:50.488Z,99.99
2022-10-29T02:45:50.447Z,99.99
2022-10-29T02:46:50.437Z,99.99
2022-10-29T02:47:50.415Z,99.99
2022-10-29T02:48:50.425Z,99.99
2022-10-29T02:49:50.386Z,99.99
2022-10-29T02:50:50.415Z,99.99
2022-10-29T02:51:50.361Z,99.99
2022-10-29T02:52:50.360Z,99.99
2022-10-29T02:53:50.348Z,99.99
2022-10-29T02:54:50.331Z,99.99
2022-10-29T02:55:50.350Z,99.99
2022-10-29T02:56:50.294Z,99.99
2022-10-29T02:57:50.306Z,99.99
2022-10-29T02:58:50.307Z,99.99
2022-10-29T02:59:51.170Z,99.99
2022-10-29T03:00:51.148Z,99.99
2022-10-29T03:01:50.737Z,99.99
2022-10-29T03:02:51.136Z,99.99
2022-10-29T03:03:50.520Z,99.99
2022-10-29T03:04:50.277Z,99.99
2022-10-29T03:05:50.252Z,99.99
2022-10-29T03:06:50.194Z,99.99
2022-10-29T03:07:50.231Z,99.99
2022-10-29T03:08:50.195Z,99.99
2022-10-29T03:09:51.170Z,99.99
2022-10-29T03:10:50.467Z,99.99
2022-10-29T03:11:52.098Z,99.99
2022-10-29T03:12:50.132Z,99.99
2022-10-29T03:13:50.454Z,99.99
2022-10-29T03:14:50.121Z,99.99
2022-10-29T03:15:50.478Z,99.99
2022-10-29T03:16:50.155Z,99.99
2022-10-29T03:17:51.092Z,99.99
2022-10-29T03:18:50.073Z,99.99
2022-10-29T03:19:50.359Z,99.99
2022-10-29T03:20:50.040Z,99.99
2022-10-29T03:21:50.326Z,99.99
2022-10-29T03:22:50.393Z,99.99
2022-10-29T03:23:50.024Z,99.99
2022-10-29T03:24:49.989Z,99.99
2022-10-29T03:25:54.589Z,99.99
2022-10-29T03:26:49.981Z,99.99
2022-10-29T03:27:49.971Z,99.99
2022-10-29T03:28:50.018Z,99.99
2022-10-29T03:29:49.958Z,99.99
2022-10-29T03:30:50.616Z,99.99
2022-10-29T03:31:49.897Z,99.99
2022-10-29T03:32:49.908Z,99.99
2022-10-29T03:33:49.912Z,99.99
2022-10-29T03:34:49.867Z,99.99
2022-10-29T03:35:49.961Z,99.99
2022-10-29T03:36:49.860Z,99.99
2022-10-29T03:37:50.865Z,99.99
2022-10-29T03:38:50.115Z,99.99
2022-10-29T03:39:49.846Z,99.99
2022-10-29T03:40:49.844Z,99.99
2022-10-29T03:41:49.794Z,99.99
2022-10-29T03:42:49.787Z,99.99
2022-10-29T03:43:49.804Z,99.99
2022-10-29T03:44:49.794Z,99.99
2022-10-29T03:45:49.758Z,99.99
2022-10-29T03:46:49.993Z,99.99
2022-10-29T03:47:49.740Z,99.99
2022-10-29T03:48:49.717Z,99.99
2022-10-29T03:49:49.749Z,99.99
2022-10-29T03:50:49.720Z,99.99
2022-10-29T03:51:49.700Z,99.99
2022-10-29T03:52:49.710Z,99.99
2022-10-29T03:53:50.613Z,99.99
2022-10-29T03:54:50.142Z,99.99
2022-10-29T03:55:49.677Z,99.99
2022-10-29T03:56:49.642Z,99.99
2022-10-29T03:57:50.622Z,99.99
2022-10-29T03:58:49.631Z,99.99
2022-10-29T03:59:52.448Z,99.99
2022-10-29T04:00:49.616Z,99.99
2022-10-29T04:01:49.705Z,99.99
2022-10-29T04:02:49.628Z,99.99
2022-10-29T04:03:49.899Z,99.99
2022-10-29T04:04:49.813Z,99.99
2022-10-29T04:05:49.569Z,99.99
2022-10-29T04:06:49.544Z,99.99
2022-10-29T04:07:49.564Z,99.99
2022-10-29T04:08:50.113Z,99.99
2022-10-29T04:09:49.548Z,99.99
2022-10-29T04:10:49.467Z,99.99
2022-10-29T04:11:49.481Z,99.99
2022-10-29T04:12:49.486Z,99.99
2022-10-29T04:13:49.443Z,99.99
2022-10-29T04:15:49.407Z,99.99
2022-10-29T04:16:49.442Z,99.99
2022-10-29T04:17:49.429Z,99.99
2022-10-29T04:18:49.420Z,99.99
2022-10-29T04:19:49.438Z,99.99
2022-10-29T04:27:01.830Z,99.99
2022-10-29T04:28:44.255Z,99.99
2022-10-29T04:29:03.528Z,99.99
2022-10-29T04:30:03.590Z,99.99
2022-10-29T04:31:03.513Z,99.99
2022-10-29T04:32:03.595Z,99.99
2022-10-29T04:33:04.145Z,99.99
2022-10-29T04:34:04.253Z,99.37
2022-10-29T04:35:03.472Z,99.11
2022-10-29T04:36:03.432Z,98.80
2022-10-29T04:37:03.482Z,97.88
2022-10-29T04:38:03.505Z,96.70
2022-10-29T04:39:03.450Z,96.19
2022-10-29T04:40:03.405Z,95.74
2022-10-29T04:41:03.386Z,94.92
2022-10-29T04:42:04.174Z,93.85
2022-10-29T04:43:03.376Z,93.95
2022-10-29T04:44:03.404Z,93.54
2022-10-29T04:45:03.379Z,93.33
2022-10-29T04:46:03.326Z,93.54
2022-10-29T04:47:03.353Z,93.33
2022-10-29T04:48:03.306Z,93.33
2022-10-29T04:49:03.417Z,93.54
2022-10-29T04:50:03.286Z,93.74
2022-10-29T04:51:03.275Z,93.54
2022-10-29T04:52:03.255Z,93.64
2022-10-29T04:53:03.275Z,93.64
2022-10-29T04:54:03.295Z,94.05
2022-10-29T04:55:03.251Z,94.36
2022-10-29T04:56:03.242Z,94.26
2022-10-29T04:57:03.212Z,94.36
2022-10-29T04:58:03.196Z,94.26
2022-10-29T04:59:03.186Z,94.36
2022-10-29T05:00:03.225Z,94.81
2022-10-29T05:01:03.329Z,95.23
2022-10-29T05:02:03.198Z,95.32
2022-10-29T05:03:03.151Z,95.32
2022-10-29T05:04:03.131Z,96.15
2022-10-29T05:05:03.120Z,96.25
2022-10-29T05:06:03.157Z,96.87
2022-10-29T05:07:03.125Z,97.02
2022-10-29T05:08:03.105Z,96.60
2022-10-29T05:09:07.254Z,96.60
2022-10-29T05:10:03.104Z,96.30
2022-10-29T05:11:03.058Z,96.81
2022-10-29T05:12:03.088Z,96.50
2022-10-29T05:13:03.332Z,96.09
2022-10-29T05:14:03.306Z,95.78
2022-10-29T05:15:03.020Z,95.78
2022-10-29T05:16:02.997Z,91.24
2022-10-29T05:17:03.096Z,89.97
2022-10-29T05:18:03.001Z,90.07
2022-10-29T05:19:02.964Z,90.07
2022-10-29T05:20:02.945Z,87.16
2022-10-29T05:21:03.213Z,85.03
2022-10-29T05:22:02.926Z,82.75
2022-10-29T05:23:02.996Z,82.95
2022-10-29T05:24:02.932Z,83.36
2022-10-29T05:25:03.669Z,83.25
2022-10-29T05:26:02.902Z,84.22
2022-10-29T05:27:02.877Z,84.11
2022-10-29T05:28:02.864Z,83.19
2022-10-29T05:29:02.889Z,82.48
2022-10-29T05:30:02.856Z,83.19
2022-10-29T05:31:02.835Z,82.27
2022-10-29T05:32:02.838Z,82.57
2022-10-29T05:33:02.876Z,82.27
2022-10-29T05:34:02.878Z,81.76
2022-10-29T05:35:02.794Z,81.96
2022-10-29T05:36:02.795Z,81.65
2022-10-29T05:37:02.819Z,80.90
2022-10-29T05:38:02.792Z,80.69
2022-10-29T05:39:02.763Z,80.49
2022-10-29T05:40:02.743Z,80.49
2022-10-29T05:41:02.747Z,80.60
2022-10-29T05:42:02.741Z,80.39
2022-10-29T05:43:02.716Z,80.39
2022-10-29T05:44:02.764Z,78.96
2022-10-29T05:45:02.716Z,78.20
2022-10-29T05:46:03.189Z,78.52
2022-10-29T05:47:02.653Z,79.06
2022-10-29T05:48:02.709Z,79.57
2022-10-29T05:49:02.634Z,79.57
2022-10-29T05:50:02.619Z,79.68
2022-10-29T05:51:02.644Z,79.30
2022-10-29T05:52:02.615Z,79.41
2022-10-29T05:53:02.599Z,76.20
2022-10-29T05:54:02.597Z,75.48
2022-10-29T05:55:02.609Z,74.32
2022-10-29T05:56:02.599Z,74.02
2022-10-29T05:57:02.559Z,73.91
2022-10-29T05:58:02.536Z,74.11
2022-10-29T05:59:02.586Z,74.26
2022-10-29T06:00:02.513Z,74.15
2022-10-29T06:01:02.501Z,74.26
2022-10-29T06:02:02.650Z,73.94
2022-10-29T06:03:02.598Z,74.35
2022-10-29T06:04:02.477Z,74.26
2022-10-29T06:05:03.152Z,73.64
2022-10-29T06:06:02.521Z,73.94
2022-10-29T06:07:02.488Z,73.94
2022-10-29T06:08:02.438Z,73.23
2022-10-29T06:09:02.442Z,73.40
2022-10-29T06:10:02.428Z,73.74
2022-10-29T06:11:02.412Z,74.15
2022-10-29T06:12:02.407Z,74.66
2022-10-29T06:13:02.381Z,74.56
2022-10-29T06:14:02.395Z,74.66
2022-10-29T06:15:02.364Z,74.97
2022-10-29T06:16:02.344Z,75.48
2022-10-29T06:17:02.341Z,75.89
2022-10-29T06:18:02.352Z,76.34
2022-10-29T06:19:02.337Z,76.95
2022-10-29T06:20:02.342Z,77.67
2022-10-29T06:21:02.338Z,77.70
2022-10-29T06:22:02.267Z,78.52
2022-10-29T06:23:02.282Z,79.24
2022-10-29T06:24:02.259Z,79.99
2022-10-29T06:25:02.259Z,80.40
2022-10-29T06:26:02.229Z,80.30
2022-10-29T06:27:02.237Z,80.81
2022-10-29T06:28:02.223Z,81.32
2022-10-29T06:29:02.214Z,81.73
2022-10-29T06:30:02.173Z,82.08
2022-10-29T06:31:02.168Z,82.59
2022-10-29T06:32:02.186Z,82.90
2022-10-29T06:33:02.190Z,83.41
2022-10-29T06:34:04.739Z,83.82
2022-10-29T06:35:03.196Z,83.96
2022-10-29T06:36:02.131Z,84.06
2022-10-29T06:37:02.094Z,84.37
2022-10-29T06:38:04.043Z,84.27
2022-10-29T06:39:02.101Z,84.27
2022-10-29T06:40:02.085Z,84.47
2022-10-29T06:41:02.077Z,84.68
2022-10-29T06:42:02.061Z,84.78
2022-10-29T06:43:02.038Z,84.58
2022-10-29T06:44:02.044Z,84.31
2022-10-29T06:45:02.889Z,84.52
2022-10-29T06:46:02.131Z,83.39
2022-10-29T06:47:01.998Z,83.59
2022-10-29T06:48:01.991Z,82.77
2022-10-29T06:49:02.032Z,82.67
2022-10-29T06:50:01.967Z,82.36
2022-10-29T06:51:01.984Z,81.95
2022-10-29T06:52:01.942Z,81.74
2022-10-29T06:53:01.935Z,81.78
2022-10-29T06:54:01.977Z,81.99
2022-10-29T06:55:01.902Z,81.78
2022-10-29T06:56:01.924Z,81.37
2022-10-29T06:57:01.911Z,80.79
2022-10-29T06:58:01.878Z,80.69
2022-10-29T06:59:01.893Z,80.18
2022-10-29T07:00:05.686Z,80.18
2022-10-29T07:01:01.884Z,79.70
2022-10-29T07:02:01.960Z,80.73
2022-10-29T07:03:01.977Z,81.34
2022-10-29T07:04:01.847Z,80.11
2022-10-29T07:05:01.817Z,80.35
2022-10-29T07:06:01.830Z,80.05
2022-10-29T07:07:01.804Z,80.25
2022-10-29T07:08:01.802Z,80.35
2022-10-29T07:09:01.793Z,80.19
2022-10-29T07:10:02.165Z,80.49
2022-10-29T07:11:01.725Z,79.77
2022-10-29T07:12:01.743Z,80.39
2022-10-29T07:13:01.738Z,80.94
2022-10-29T07:14:01.718Z,81.15
2022-10-29T07:15:01.700Z,81.35
2022-10-29T07:16:01.684Z,80.53
2022-10-29T07:17:01.775Z,80.43
2022-10-29T07:18:01.675Z,80.33
2022-10-29T07:19:01.711Z,80.33
2022-10-29T07:20:01.638Z,81.19
2022-10-29T07:21:01.760Z,81.39
2022-10-29T07:22:01.738Z,81.81
2022-10-29T07:23:01.629Z,81.49
2022-10-29T07:24:01.644Z,81.29
2022-10-29T07:25:01.809Z,81.81
2022-10-29T07:26:01.571Z,82.32
2022-10-29T07:27:01.557Z,82.32
2022-10-29T07:28:01.831Z,82.67
2022-10-29T07:29:01.549Z,81.74
2022-10-29T07:30:01.529Z,81.53
2022-10-29T07:31:01.686Z,80.91
2022-10-29T07:32:01.518Z,81.12
2022-10-29T07:33:01.528Z,81.33
2022-10-29T07:34:01.505Z,81.23
2022-10-29T07:35:01.481Z,81.74
2022-10-29T07:36:01.530Z,81.53
2022-10-29T07:37:02.257Z,82.15
2022-10-29T07:38:05.356Z,82.35
2022-10-29T07:39:01.454Z,82.87
2022-10-29T07:40:01.409Z,82.35
2022-10-29T07:41:01.386Z,82.77
2022-10-29T07:42:01.431Z,82.77
2022-10-29T07:43:01.387Z,83.39
2022-10-29T07:44:01.407Z,83.70
2022-10-29T07:45:01.424Z,84.11
2022-10-29T07:46:02.138Z,84.21
2022-10-29T07:47:01.362Z,84.52
2022-10-29T07:48:02.924Z,84.52
2022-10-29T07:49:01.336Z,83.80
2022-10-29T07:50:01.319Z,84.21
2022-10-29T07:51:04.006Z,84.11
2022-10-29T07:52:01.276Z,84.42
2022-10-29T07:53:01.275Z,84.00
2022-10-29T07:54:01.256Z,84.21
2022-10-29T07:55:01.258Z,84.00
2022-10-29T07:56:01.257Z,84.21
2022-10-29T07:57:01.270Z,84.05
2022-10-29T07:58:01.237Z,84.05
2022-10-29T07:59:01.206Z,83.53
2022-10-29T08:00:02.284Z,83.53
2022-10-29T08:01:01.247Z,83.94
2022-10-29T08:02:01.200Z,83.63
2022-10-29T08:03:01.170Z,83.84
2022-10-29T08:04:01.182Z,84.05
2022-10-29T08:05:01.144Z,84.05
2022-10-29T08:06:01.158Z,84.45
2022-10-29T08:07:01.134Z,84.45
2022-10-29T08:08:01.284Z,84.45
2022-10-29T08:09:01.211Z,84.14
2022-10-29T08:10:01.088Z,84.45
2022-10-29T08:11:01.064Z,84.14
2022-10-29T08:12:01.067Z,84.66
2022-10-29T08:13:01.662Z,84.66
2022-10-29T08:14:01.058Z,84.77
2022-10-29T08:15:01.291Z,84.56
2022-10-29T08:16:01.816Z,85.17
2022-10-29T08:17:01.003Z,84.77
2022-10-29T08:18:01.248Z,84.66
2022-10-29T08:19:01.038Z,84.56
2022-10-29T08:20:00.999Z,84.66
2022-10-29T08:21:01.062Z,84.77
2022-10-29T08:22:01.118Z,84.87
2022-10-29T08:23:01.556Z,84.97
2022-10-29T08:24:01.205Z,84.77
2022-10-29T08:25:00.922Z,84.97
2022-10-29T08:26:00.912Z,85.07
2022-10-29T08:27:00.932Z,84.97
2022-10-29T08:28:01.121Z,85.28
2022-10-29T08:29:00.881Z,85.17
2022-10-29T08:30:01.385Z,85.17
2022-10-29T08:31:01.108Z,85.28
2022-10-29T08:32:00.938Z,85.49
2022-10-29T08:33:01.296Z,85.28
2022-10-29T08:34:00.825Z,85.38
2022-10-29T08:35:00.806Z,85.59
2022-10-29T08:36:00.947Z,85.28
2022-10-29T08:37:01.071Z,85.59
2022-10-29T08:38:00.811Z,85.79
2022-10-29T08:39:00.764Z,85.38
2022-10-29T08:40:00.757Z,85.59
2022-10-29T08:41:00.758Z,85.69
2022-10-29T08:42:00.812Z,86.00
2022-10-29T08:43:00.713Z,85.89
2022-10-29T08:45:00.711Z,86.21
2022-10-29T08:46:01.351Z,86.21
2022-10-29T08:47:03.769Z,86.24
2022-10-29T08:48:00.686Z,86.45
2022-10-29T08:49:00.709Z,86.35
2022-10-29T08:50:00.681Z,86.45
2022-10-29T08:51:00.625Z,86.24
2022-10-29T08:52:00.757Z,86.15
2022-10-29T08:55:00.610Z,86.45
2022-10-29T08:56:01.304Z,86.45
2022-10-29T08:57:00.560Z,86.45
2022-10-29T08:58:01.118Z,86.76
2022-10-29T08:59:01.519Z,87.07
2022-10-29T09:00:01.116Z,87.17
2022-10-29T09:01:01.057Z,87.17
2022-10-29T09:02:00.995Z,87.07
2022-10-29T09:03:00.788Z,86.97
2022-10-29T09:04:00.701Z,87.07
2022-10-29T09:05:00.699Z,86.97
2022-10-29T09:06:00.737Z,86.82
2022-10-29T09:07:00.552Z,86.61
2022-10-29T09:08:02.319Z,86.21
2022-10-29T09:09:00.606Z,85.86
2022-10-29T09:10:00.691Z,85.65
2022-10-29T09:11:00.937Z,85.41
2022-10-29T09:12:01.381Z,85.10
2022-10-29T09:13:00.649Z,85.51
2022-10-29T09:14:01.687Z,85.92
2022-10-29T09:15:00.666Z,86.54
2022-10-29T09:16:00.615Z,86.43
2022-10-29T09:17:00.572Z,86.99
2022-10-29T09:18:00.664Z,86.88
2022-10-29T09:19:00.598Z,87.60
2022-10-29T09:20:01.048Z,87.51
2022-10-29T09:21:00.431Z,88.12
2022-10-29T09:22:00.614Z,88.12
2022-10-29T09:23:00.623Z,88.02
2022-10-29T09:24:00.820Z,87.81
2022-10-29T09:25:01.020Z,88.02
2022-10-29T09:26:00.661Z,88.47
2022-10-29T09:27:00.407Z,88.68
2022-10-29T09:28:00.489Z,88.37
2022-10-29T09:29:00.630Z,88.26
2022-10-29T09:30:00.551Z,88.99
2022-10-29T09:31:01.362Z,88.68
2022-10-29T09:32:00.836Z,89.81
2022-10-29T09:33:02.158Z,89.91
2022-10-29T09:34:01.851Z,90.73
2022-10-29T09:35:00.326Z,90.64
2022-10-29T09:36:00.524Z,89.03
2022-10-29T09:37:00.710Z,89.13
2022-10-29T09:38:00.594Z,89.79
2022-10-29T09:39:00.726Z,89.89
2022-10-29T09:40:01.175Z,90.10
2022-10-29T09:41:00.986Z,90.82
2022-10-29T09:42:00.282Z,89.69
2022-10-29T09:43:00.362Z,89.38
2022-10-29T09:44:01.258Z,90.10
2022-10-29T09:45:01.945Z,89.38
2022-10-29T09:46:00.015Z,89.38
2022-10-29T09:47:00.585Z,88.35
2022-10-29T09:48:01.158Z,87.11
2022-10-29T09:49:00.076Z,86.66
2022-10-29T09:50:05.268Z,86.24
2022-10-29T09:50:59.966Z,86.66
2022-10-29T09:51:59.976Z,87.11
2022-10-29T09:53:00.158Z,86.49
2022-10-29T09:53:59.937Z,86.60
2022-10-29T09:54:59.979Z,85.77
2022-10-29T09:55:59.911Z,84.94
2022-10-29T09:56:59.885Z,83.40
2022-10-29T09:58:08.075Z,82.57
2022-10-29T09:58:59.862Z,84.01
2022-10-29T10:00:00.538Z,82.68
2022-10-29T10:01:00.361Z,82.89
2022-10-29T10:01:59.898Z,81.96
2022-10-29T10:03:00.121Z,81.96
2022-10-29T10:04:59.808Z,80.96
2022-10-29T10:05:59.782Z,80.00
2022-10-29T10:06:59.788Z,79.38
2022-10-29T10:07:59.766Z,80.41
2022-10-29T10:09:00.861Z,80.41
2022-10-29T10:09:59.792Z,79.34
2022-10-29T10:11:02.355Z,79.86
2022-10-29T10:11:59.776Z,79.65
2022-10-29T10:12:59.761Z,79.24
2022-10-29T10:13:59.762Z,78.00
2022-10-29T10:14:59.711Z,77.59
2022-10-29T10:15:59.745Z,77.08
2022-10-29T10:16:59.682Z,76.42
2022-10-29T10:18:00.306Z,76.73
2022-10-29T10:18:59.658Z,76.83
2022-10-29T10:19:59.644Z,75.90
2022-10-29T10:20:59.640Z,75.46
2022-10-29T10:21:59.620Z,75.35
2022-10-29T10:22:59.902Z,75.35
2022-10-29T10:23:59.599Z,76.35
2022-10-29T10:24:59.608Z,75.97
2022-10-29T10:26:04.139Z,78.07
2022-10-29T10:26:59.687Z,81.03
2022-10-29T10:27:59.771Z,82.24
2022-10-29T10:29:01.220Z,83.20
2022-10-29T10:29:59.527Z,84.38
2022-10-29T10:30:59.892Z,84.07
2022-10-29T10:31:59.538Z,85.21
2022-10-29T10:32:59.539Z,85.55
2022-10-29T10:33:59.502Z,85.21
2022-10-29T10:34:59.461Z,84.48
2022-10-29T10:36:00.494Z,83.14
2022-10-29T10:36:59.465Z,83.14
2022-10-29T10:38:00.331Z,83.45
2022-10-29T10:38:59.544Z,81.07
2022-10-29T10:39:59.428Z,82.21
2022-10-29T10:41:00.551Z,81.49
2022-10-29T10:41:59.938Z,81.49
2022-10-29T10:43:03.099Z,81.90
2022-10-29T10:43:59.433Z,80.76
2022-10-29T10:44:59.839Z,81.70
2022-10-29T10:45:59.442Z,80.66
2022-10-29T10:47:00.460Z,80.76
2022-10-29T10:47:59.967Z,81.28
2022-10-29T10:48:59.314Z,81.18
2022-10-29T10:50:00.364Z,80.35
2022-10-29T10:50:59.417Z,80.32
2022-10-29T10:51:59.528Z,82.62
2022-10-29T10:52:59.680Z,84.00
2022-10-29T10:54:00.229Z,85.60
2022-10-29T10:54:59.477Z,87.81
2022-10-29T10:55:59.254Z,86.98
2022-10-29T10:56:59.297Z,85.94
2022-10-29T10:57:59.232Z,86.91
2022-10-29T10:58:59.797Z,87.33
2022-10-29T11:00:02.480Z,87.54
2022-10-29T11:01:00.364Z,86.60
2022-10-29T11:01:59.364Z,85.57
2022-10-29T11:02:59.615Z,84.74
2022-10-29T11:03:59.199Z,83.61
2022-10-29T11:05:00.930Z,83.71
2022-10-29T11:05:59.132Z,82.05
2022-10-29T11:06:59.162Z,81.23
2022-10-29T11:08:00.086Z,81.39
2022-10-29T11:08:59.134Z,81.91
2022-10-29T11:09:59.983Z,81.67
2022-10-29T11:10:59.113Z,81.77
2022-10-29T11:11:59.442Z,81.35
2022-10-29T11:12:59.075Z,80.32
2022-10-29T11:13:59.070Z,79.43
2022-10-29T11:14:59.091Z,75.81
2022-10-29T11:15:59.023Z,74.60
2022-10-29T11:16:59.046Z,73.57
2022-10-29T11:17:59.193Z,74.81
2022-10-29T11:18:59.106Z,73.88
2022-10-29T11:19:58.969Z,73.77
2022-10-29T11:20:58.971Z,73.46
2022-10-29T11:21:58.974Z,72.22
2022-10-29T11:22:59.330Z,71.81
2022-10-29T11:23:58.960Z,71.29
2022-10-29T11:24:59.119Z,69.12
2022-10-29T11:25:58.931Z,69.74
2022-10-29T11:26:58.906Z,69.12
2022-10-29T11:27:58.893Z,69.22
2022-10-29T11:28:58.857Z,67.85
2022-10-29T11:29:58.890Z,69.92
2022-10-29T11:30:59.987Z,70.01
2022-10-29T11:31:59.264Z,70.01
2022-10-29T11:33:01.134Z,70.95
2022-10-29T11:33:58.993Z,72.36
2022-10-29T11:35:00.229Z,72.29
2022-10-29T11:36:01.494Z,71.88
2022-10-29T11:37:00.326Z,71.78
2022-10-29T11:37:59.148Z,72.19
2022-10-29T11:38:58.745Z,72.88
2022-10-29T11:39:58.767Z,73.81
2022-10-29T11:40:59.988Z,71.84
2022-10-29T11:43:50.023Z,69.19
2022-10-29T11:44:51.002Z,69.60
2022-10-29T11:45:51.048Z,69.29
2022-10-29T11:46:51.281Z,69.09
2022-10-29T11:47:50.987Z,69.74
2022-10-29T11:48:51.127Z,68.80
2022-10-29T11:49:50.939Z,68.60
2022-10-29T11:50:51.790Z,69.84
2022-10-29T11:51:50.950Z,69.67
2022-10-29T11:52:50.927Z,69.32
2022-10-29T11:53:51.623Z,69.04
2022-10-29T11:54:50.892Z,70.60
2022-10-29T11:55:51.781Z,69.67
2022-10-29T11:56:50.892Z,69.77
2022-10-29T11:57:50.857Z,68.40
2022-10-29T11:58:50.865Z,68.63
2022-10-29T11:59:50.823Z,68.84
2022-10-29T12:00:50.812Z,68.74
2022-10-29T12:01:50.946Z,69.95
2022-10-29T12:02:50.785Z,68.91
2022-10-29T12:03:50.790Z,68.91
2022-10-29T12:04:50.800Z,69.22
2022-10-29T12:05:50.758Z,69.64
2022-10-29T12:06:50.794Z,70.36
2022-10-29T12:07:50.730Z,69.50
2022-10-29T12:08:50.719Z,69.53
2022-10-29T12:09:50.713Z,69.95
2022-10-29T12:10:50.751Z,69.64
2022-10-29T12:11:50.717Z,70.67
2022-10-29T12:12:50.696Z,69.74
2022-10-29T12:13:50.705Z,70.39
2022-10-29T12:14:50.657Z,69.67
2022-10-29T12:15:50.645Z,70.18
2022-10-29T12:16:50.658Z,69.56
2022-10-29T12:17:50.717Z,70.91
2022-10-29T12:18:50.615Z,69.04
2022-10-29T12:19:50.786Z,69.15
2022-10-29T12:20:50.580Z,69.25
2022-10-29T12:21:50.590Z,70.29
2022-10-29T12:22:50.564Z,70.08
2022-10-29T12:23:50.551Z,70.81
2022-10-29T12:24:51.444Z,71.01
2022-10-29T12:25:50.515Z,71.33
2022-10-29T12:26:50.530Z,73.22
2022-10-29T12:27:50.547Z,73.71
2022-10-29T12:28:50.497Z,72.91
2022-10-29T12:29:50.570Z,72.91
2022-10-29T12:30:50.489Z,74.57
2022-10-29T12:31:50.460Z,73.88
2022-10-29T12:32:50.462Z,74.91
2022-10-29T12:33:50.468Z,74.50
2022-10-29T12:34:50.439Z,76.15
2022-10-29T12:35:50.503Z,75.43
2022-10-29T12:36:53.320Z,75.43
2022-10-29T12:37:50.420Z,75.74
2022-10-29T12:38:50.383Z,74.95
2022-10-29T12:39:50.382Z,75.57
2022-10-29T12:40:50.360Z,75.46
2022-10-29T12:41:50.384Z,75.98
2022-10-29T12:42:50.370Z,75.15
2022-10-29T12:43:50.362Z,75.46
2022-10-29T12:44:50.314Z,75.26
2022-10-29T12:46:14.378Z,76.09
2022-10-29T12:46:50.958Z,76.40
2022-10-29T12:47:50.279Z,76.43
2022-10-29T12:48:50.294Z,76.85
2022-10-29T12:49:50.282Z,76.43
2022-10-29T12:50:50.274Z,76.64
2022-10-29T12:51:50.304Z,76.02
2022-10-29T12:52:50.814Z,76.43
2022-10-29T12:53:50.216Z,75.92
2022-10-29T12:54:50.210Z,76.12
2022-10-29T12:55:50.215Z,76.29
2022-10-29T12:56:50.624Z,76.02
2022-10-29T12:57:50.502Z,76.95
2022-10-29T12:58:50.152Z,76.71
2022-10-29T12:59:50.155Z,75.98
2022-10-29T13:00:50.170Z,76.61
2022-10-29T13:02:10.653Z,76.40
2022-10-29T13:02:50.345Z,76.29
2022-10-29T13:03:50.180Z,76.40
2022-10-29T13:04:50.106Z,76.50
2022-10-29T13:05:51.702Z,76.81